Time;durP1;ratioP1;P1;durP2;ratioP2;P2;SDS_P1;SDS_P2;PMS_P1;PMS_P2;Temp;Humidity;BMP_temperature;BMP_pressure;BME280_temperature;BME280_humidity;BME280_pressure;Samples;Min_cycle;Max_cycle;Signal;HPM_P1;HPM_P2
2022/10/06 00:00:28;;;;;;;4.00;2.78;;;19.50;99.90;;;;;;4146751;28;20314;-80
2022/10/06 00:02:34;;;;;;;4.03;2.70;;;19.50;99.90;;;;;;4142895;28;20221;-80
2022/10/06 00:04:38;;;;;;;3.03;2.72;;;19.40;99.90;;;;;;4145572;28;20220;-80
2022/10/06 00:06:40;;;;;;;3.78;2.42;;;19.50;99.90;;;;;;4147669;28;20258;-81
2022/10/06 00:08:44;;;;;;;3.00;2.50;;;19.40;99.90;;;;;;4145394;28;20233;-80
2022/10/06 00:10:46;;;;;;;3.92;2.42;;;19.40;99.90;;;;;;4146207;28;20271;-80
2022/10/06 00:12:50;;;;;;;3.72;2.50;;;19.40;99.90;;;;;;4144630;28;20744;-80
2022/10/06 00:14:53;;;;;;;5.22;2.80;;;19.40;99.90;;;;;;4141621;28;20265;-81
2022/10/06 00:16:55;;;;;;;3.60;2.63;;;19.40;99.90;;;;;;4148753;28;20247;-80
2022/10/06 00:18:57;;;;;;;3.58;2.50;;;19.40;99.90;;;;;;4148558;28;20213;-80
2022/10/06 00:21:03;;;;;;;3.25;2.63;;;19.40;99.90;;;;;;4149357;28;20255;-80
2022/10/06 00:23:05;;;;;;;4.70;2.47;;;19.40;99.90;;;;;;4147333;28;20213;-81
2022/10/06 00:25:09;;;;;;;3.80;2.70;;;19.40;99.90;;;;;;4149313;28;20216;-80
2022/10/06 00:27:11;;;;;;;4.03;2.60;;;19.40;99.90;;;;;;4141263;28;20264;-80
2022/10/06 00:29:14;;;;;;;3.22;2.40;;;19.50;99.90;;;;;;4149120;28;20241;-80
2022/10/06 00:31:18;;;;;;;2.50;2.30;;;19.40;99.90;;;;;;4140156;28;20214;-80
2022/10/06 00:33:20;;;;;;;3.72;2.65;;;19.40;99.90;;;;;;4142525;28;20214;-80
2022/10/06 00:35:24;;;;;;;2.65;2.42;;;19.40;99.90;;;;;;4140600;28;20209;-80
2022/10/06 00:37:29;;;;;;;3.85;3.00;;;19.40;99.90;;;;;;4139823;28;20259;-79
2022/10/06 00:39:31;;;;;;;3.10;2.65;;;19.40;99.90;;;;;;4146921;28;20260;-80
2022/10/06 00:41:33;;;;;;;3.78;2.75;;;19.40;99.90;;;;;;4146263;28;20244;-79
2022/10/06 00:43:43;;;;;;;3.67;2.35;;;19.40;99.90;;;;;;4148176;28;20222;-79
2022/10/06 00:45:48;;;;;;;2.72;2.38;;;19.40;99.90;;;;;;4146684;28;20221;-80
2022/10/06 00:47:51;;;;;;;4.20;2.78;;;19.40;99.90;;;;;;4144956;28;20650;-80
2022/10/06 00:49:54;;;;;;;3.28;2.65;;;19.40;99.90;;;;;;4144769;28;20233;-80
2022/10/06 00:52:02;;;;;;;3.47;2.40;;;19.40;99.90;;;;;;4146811;28;20236;-79
2022/10/06 00:54:06;;;;;;;2.63;2.40;;;19.40;99.90;;;;;;4145954;28;20247;-80
2022/10/06 00:56:09;;;;;;;4.68;2.63;;;19.40;99.90;;;;;;4147363;28;20221;-80
2022/10/06 00:58:12;;;;;;;3.45;2.58;;;19.40;99.90;;;;;;4147341;28;20217;-79
2022/10/06 01:00:15;;;;;;;3.33;2.33;;;19.40;99.90;;;;;;4145315;28;20217;-79
2022/10/06 01:02:21;;;;;;;3.63;2.28;;;19.40;99.90;;;;;;4147174;28;20678;-79
2022/10/06 01:04:25;;;;;;;3.05;2.50;;;19.40;99.90;;;;;;4147908;28;20628;-80
2022/10/06 01:06:27;;;;;;;3.40;2.50;;;19.40;99.90;;;;;;4146269;28;20813;-80
2022/10/06 01:08:30;;;;;;;4.55;2.60;;;19.40;99.90;;;;;;4147639;28;20666;-79
2022/10/06 01:10:34;;;;;;;5.15;2.80;;;19.40;99.90;;;;;;4146270;28;20287;-80
2022/10/06 01:12:37;;;;;;;2.92;2.15;;;19.30;99.90;;;;;;4146995;28;20217;-80
2022/10/06 01:14:40;;;;;;;3.83;2.30;;;19.30;99.90;;;;;;4146260;28;20275;-79
2022/10/06 01:16:46;;;;;;;4.07;2.60;;;19.30;99.90;;;;;;4146172;28;20255;-80
2022/10/06 01:18:49;;;;;;;4.38;2.58;;;19.30;99.90;;;;;;4147625;28;20225;-80
2022/10/06 01:20:57;;;;;;;3.13;2.50;;;19.30;99.90;;;;;;4147588;28;20217;-80
2022/10/06 01:23:04;;;;;;;3.95;2.65;;;19.30;99.90;;;;;;4145803;28;20921;-79
2022/10/06 01:25:08;;;;;;;3.60;2.40;;;19.30;99.90;;;;;;4147010;28;20621;-80
2022/10/06 01:27:14;;;;;;;3.35;2.70;;;19.30;99.90;;;;;;4149422;28;20641;-79
2022/10/06 01:29:17;;;;;;;4.22;2.22;;;19.30;99.90;;;;;;4139593;28;20237;-79
2022/10/06 01:31:19;;;;;;;4.43;2.60;;;19.30;99.90;;;;;;4145238;28;20217;-80
2022/10/06 01:33:22;;;;;;;3.75;2.42;;;19.30;99.90;;;;;;4152022;28;20213;-79
2022/10/06 01:35:25;;;;;;;3.03;2.30;;;19.30;99.90;;;;;;4149970;28;20216;-80
2022/10/06 01:37:27;;;;;;;3.72;2.67;;;19.30;99.90;;;;;;4147241;28;20838;-79
2022/10/06 01:39:31;;;;;;;3.90;2.72;;;19.30;99.90;;;;;;4146043;28;21230;-79
2022/10/06 01:41:33;;;;;;;4.30;2.67;;;19.30;99.90;;;;;;4150613;28;20220;-79
2022/10/06 01:43:36;;;;;;;5.32;2.55;;;19.30;99.90;;;;;;4149118;28;20264;-79
2022/10/06 01:45:38;;;;;;;3.45;2.40;;;19.30;99.90;;;;;;4141832;28;20283;-79
2022/10/06 01:47:40;;;;;;;4.22;2.40;;;19.30;99.90;;;;;;4147705;28;20615;-79
2022/10/06 01:49:42;;;;;;;6.15;2.50;;;19.30;99.90;;;;;;4147917;28;20849;-79
2022/10/06 01:51:46;;;;;;;4.75;2.67;;;19.30;99.90;;;;;;4146780;28;20239;-79
2022/10/06 01:53:48;;;;;;;3.67;2.70;;;19.30;99.90;;;;;;4146366;28;20263;-79
2022/10/06 01:55:51;;;;;;;5.28;2.72;;;19.30;99.90;;;;;;4146774;28;20248;-79
2022/10/06 01:57:54;;;;;;;2.90;2.35;;;19.20;99.90;;;;;;4144048;28;20213;-80
2022/10/06 01:59:56;;;;;;;5.30;2.40;;;19.30;99.90;;;;;;4146711;28;20213;-80
2022/10/06 02:01:58;;;;;;;3.70;2.50;;;19.30;99.90;;;;;;4146626;28;20263;-80
2022/10/06 02:04:01;;;;;;;3.85;2.25;;;19.30;99.90;;;;;;4139781;28;20217;-79
2022/10/06 02:06:04;;;;;;;4.45;2.63;;;19.30;99.90;;;;;;4145896;28;20263;-80
2022/10/06 02:08:08;;;;;;;3.08;2.30;;;19.30;99.90;;;;;;4146637;28;20251;-79
2022/10/06 02:10:10;;;;;;;4.15;2.22;;;19.30;99.90;;;;;;4145006;28;20245;-80
2022/10/06 02:12:14;;;;;;;4.68;2.60;;;19.30;99.90;;;;;;4145295;28;20209;-80
2022/10/06 02:14:17;;;;;;;4.50;2.45;;;19.20;99.90;;;;;;4146567;28;20267;-80
2022/10/06 02:16:19;;;;;;;5.20;2.47;;;19.30;99.90;;;;;;4144378;28;20295;-80
2022/10/06 02:18:22;;;;;;;2.72;2.13;;;19.20;99.90;;;;;;4145649;28;20243;-79
2022/10/06 02:20:24;;;;;;;5.55;2.47;;;19.20;99.90;;;;;;4145766;28;20275;-80
2022/10/06 02:22:27;;;;;;;4.53;2.60;;;19.20;99.90;;;;;;4144760;28;20928;-80
2022/10/06 02:24:29;;;;;;;6.38;2.55;;;19.20;99.90;;;;;;4143340;28;20221;-80
2022/10/06 02:26:32;;;;;;;4.15;2.38;;;19.20;99.90;;;;;;4145892;28;20244;-80
2022/10/06 02:28:35;;;;;;;4.25;2.13;;;19.20;99.90;;;;;;4145504;28;20221;-79
2022/10/06 02:30:37;;;;;;;3.65;2.20;;;19.20;99.90;;;;;;4145706;28;20291;-80
2022/10/06 02:32:42;;;;;;;4.63;2.60;;;19.20;99.90;;;;;;4145968;28;20287;-79
2022/10/06 02:34:45;;;;;;;4.40;2.53;;;19.20;99.90;;;;;;4144110;28;20883;-79
2022/10/06 02:36:47;;;;;;;3.60;2.33;;;19.20;99.90;;;;;;4145762;28;20316;-79
2022/10/06 02:38:49;;;;;;;4.25;2.60;;;19.20;99.90;;;;;;4146294;28;20217;-78
2022/10/06 02:40:52;;;;;;;5.00;2.60;;;19.20;99.90;;;;;;4144554;28;20271;-79
2022/10/06 02:42:55;;;;;;;5.57;2.50;;;19.20;99.90;;;;;;4146145;28;20220;-79
2022/10/06 02:44:58;;;;;;;4.38;2.50;;;19.20;99.90;;;;;;4145895;28;20271;-79
2022/10/06 02:47:00;;;;;;;2.95;2.35;;;19.20;99.90;;;;;;4144710;28;20217;-79
2022/10/06 02:49:03;;;;;;;4.72;2.30;;;19.20;99.90;;;;;;4146523;28;20221;-79
2022/10/06 02:51:08;;;;;;;5.57;2.60;;;19.20;99.90;;;;;;4145298;28;20229;-79
2022/10/06 02:53:10;;;;;;;2.58;1.90;;;19.20;99.90;;;;;;4145658;28;20338;-79
2022/10/06 02:55:13;;;;;;;5.40;2.60;;;19.20;99.90;;;;;;4145641;28;20221;-79
2022/10/06 02:57:15;;;;;;;4.70;2.25;;;19.20;99.90;;;;;;4143892;28;20925;-79
2022/10/06 02:59:17;;;;;;;4.88;2.47;;;19.10;99.90;;;;;;4143650;28;20327;-79
2022/10/06 03:01:24;;;;;;;4.60;2.58;;;19.10;99.90;;;;;;4145216;28;20632;-79
2022/10/06 03:03:26;;;;;;;5.28;2.40;;;19.20;99.90;;;;;;4144850;28;20619;-80
2022/10/06 03:05:29;;;;;;;4.13;2.30;;;19.10;99.90;;;;;;4144492;28;20213;-80
2022/10/06 03:07:31;;;;;;;3.22;2.25;;;19.10;99.90;;;;;;4145926;28;20263;-79
2022/10/06 03:09:33;;;;;;;4.93;2.80;;;19.10;99.90;;;;;;4146591;28;20259;-80
2022/10/06 03:11:38;;;;;;;5.28;2.20;;;19.10;99.90;;;;;;4144628;28;20240;-80
2022/10/06 03:13:41;;;;;;;3.83;2.10;;;19.10;99.90;;;;;;4146668;28;20221;-80
2022/10/06 03:15:43;;;;;;;5.05;2.60;;;19.10;99.90;;;;;;4143593;28;20263;-79
2022/10/06 03:17:51;;;;;;;3.70;2.33;;;19.10;99.90;;;;;;4145258;28;20217;-80
2022/10/06 03:19:55;;;;;;;4.30;2.55;;;19.10;99.90;;;;;;4146130;28;20267;-79
2022/10/06 03:21:57;;;;;;;3.95;2.60;;;19.10;99.90;;;;;;4147425;28;20244;-79
2022/10/06 03:24:00;;;;;;;3.10;2.15;;;19.10;99.90;;;;;;4143887;28;20287;-80
2022/10/06 03:26:03;;;;;;;2.97;2.28;;;19.10;99.90;;;;;;4145687;28;20217;-80
2022/10/06 03:28:05;;;;;;;5.10;2.10;;;19.10;99.90;;;;;;4147572;28;20271;-79
2022/10/06 03:30:09;;;;;;;4.65;2.83;;;19.10;99.90;;;;;;4143722;28;20271;-79
2022/10/06 03:32:11;;;;;;;6.18;2.42;;;19.10;99.90;;;;;;4145610;28;20260;-80
2022/10/06 03:34:15;;;;;;;2.42;2.03;;;19.10;99.90;;;;;;4146139;28;20214;-79
2022/10/06 03:36:20;;;;;;;4.78;2.38;;;19.10;99.90;;;;;;4143328;28;20249;-80
2022/10/06 03:38:22;;;;;;;3.80;2.25;;;19.10;99.90;;;;;;4148379;28;20225;-79
2022/10/06 03:40:24;;;;;;;4.20;2.50;;;19.10;99.90;;;;;;4150949;28;20236;-79
2022/10/06 03:42:27;;;;;;;4.18;2.47;;;19.10;99.90;;;;;;4148141;28;20670;-79
2022/10/06 03:44:31;;;;;;;4.35;2.10;;;19.10;99.90;;;;;;4148646;28;20221;-80
2022/10/06 03:46:34;;;;;;;4.85;2.38;;;19.10;99.90;;;;;;4148564;28;20221;-80
2022/10/06 03:48:37;;;;;;;4.63;2.38;;;19.10;99.90;;;;;;4145776;28;20235;-79
2022/10/06 03:50:42;;;;;;;6.00;2.30;;;19.10;99.90;;;;;;4149218;28;20287;-80
2022/10/06 03:52:50;;;;;;;4.25;2.33;;;19.10;99.90;;;;;;4143262;28;20295;-80
2022/10/06 03:54:52;;;;;;;3.10;2.13;;;19.10;99.90;;;;;;4148139;28;20259;-80
2022/10/06 03:56:54;;;;;;;3.60;2.33;;;19.10;99.90;;;;;;4149355;28;20220;-80
2022/10/06 03:58:58;;;;;;;4.88;2.60;;;19.00;99.90;;;;;;4147045;28;20341;-80
2022/10/06 04:01:02;;;;;;;3.00;2.30;;;19.00;99.90;;;;;;4147682;28;20287;-80
2022/10/06 04:03:04;;;;;;;4.22;2.35;;;19.10;99.90;;;;;;4148838;28;20270;-80
2022/10/06 04:05:07;;;;;;;3.97;2.38;;;19.10;99.90;;;;;;4146145;28;20272;-80
2022/10/06 04:07:11;;;;;;;5.68;2.40;;;19.00;99.90;;;;;;4148626;28;20583;-80
2022/10/06 04:09:14;;;;;;;2.80;2.17;;;19.10;99.90;;;;;;4148282;28;20231;-80
2022/10/06 04:11:19;;;;;;;6.70;3.00;;;19.10;99.90;;;;;;4145906;28;20327;-80
2022/10/06 04:13:22;;;;;;;5.13;2.45;;;19.00;99.90;;;;;;4146536;28;20271;-80
2022/10/06 04:15:24;;;;;;;6.55;2.22;;;19.00;99.90;;;;;;4148723;28;20264;-79
2022/10/06 04:17:26;;;;;;;5.25;2.83;;;19.10;99.90;;;;;;4146459;28;20213;-80
2022/10/06 04:19:29;;;;;;;4.28;2.63;;;19.00;99.90;;;;;;4148240;28;20213;-80
2022/10/06 04:21:33;;;;;;;4.60;2.05;;;19.00;99.90;;;;;;4148381;28;20267;-80
2022/10/06 04:23:37;;;;;;;4.82;2.50;;;19.00;99.90;;;;;;4146515;28;20315;-80
2022/10/06 04:25:39;;;;;;;3.55;2.05;;;19.00;99.90;;;;;;4147481;28;20248;-80
2022/10/06 04:27:42;;;;;;;4.00;2.40;;;19.00;99.90;;;;;;4148032;28;20263;-80
2022/10/06 04:29:44;;;;;;;4.25;2.53;;;19.00;99.90;;;;;;4146890;28;20209;-81
2022/10/06 04:31:48;;;;;;;4.68;2.13;;;19.00;99.90;;;;;;4149594;28;20241;-80
2022/10/06 04:33:53;;;;;;;6.07;2.28;;;19.00;99.90;;;;;;4147532;28;20614;-80
2022/10/06 04:35:58;;;;;;;5.32;2.33;;;19.00;99.90;;;;;;4146530;28;20229;-80
2022/10/06 04:38:01;;;;;;;4.53;2.17;;;19.00;99.90;;;;;;4147870;28;20221;-80
2022/10/06 04:40:05;;;;;;;3.28;2.05;;;19.00;99.90;;;;;;4146561;28;20302;-80
2022/10/06 04:42:07;;;;;;;4.85;2.25;;;19.00;99.90;;;;;;4148095;28;20217;-80
2022/10/06 04:44:10;;;;;;;5.60;2.35;;;19.00;99.90;;;;;;4147337;28;20373;-80
2022/10/06 04:46:13;;;;;;;3.90;2.15;;;19.00;99.90;;;;;;4146054;28;20669;-80
2022/10/06 04:48:15;;;;;;;4.53;2.33;;;19.00;99.90;;;;;;4147778;28;20229;-80
2022/10/06 04:50:17;;;;;;;5.43;2.20;;;19.00;99.90;;;;;;4148191;28;20259;-80
2022/10/06 04:52:19;;;;;;;3.20;2.35;;;19.00;99.90;;;;;;4145207;28;20233;-80
2022/10/06 04:54:22;;;;;;;4.53;2.67;;;19.00;99.90;;;;;;4148201;28;20275;-80
2022/10/06 04:56:28;;;;;;;4.00;1.90;;;18.90;99.90;;;;;;4148197;28;20217;-80
2022/10/06 04:58:32;;;;;;;2.90;1.90;;;18.90;99.90;;;;;;4146898;28;20217;-80
2022/10/06 05:00:33;;;;;;;4.03;2.13;;;18.90;99.90;;;;;;4147040;28;20263;-79
2022/10/06 05:02:36;;;;;;;4.22;2.20;;;18.90;99.90;;;;;;4147891;28;20217;-79
2022/10/06 05:04:38;;;;;;;4.63;2.53;;;18.90;99.90;;;;;;4146672;28;20221;-78
2022/10/06 05:06:42;;;;;;;4.72;2.08;;;18.90;99.90;;;;;;4149673;28;20217;-79
2022/10/06 05:08:47;;;;;;;4.57;2.17;;;19.00;99.90;;;;;;4146897;28;20225;-80
2022/10/06 05:10:50;;;;;;;6.80;2.67;;;19.00;99.90;;;;;;4146354;28;20283;-80
2022/10/06 05:12:53;;;;;;;3.67;2.00;;;19.00;99.90;;;;;;4147475;28;20245;-80
2022/10/06 05:14:56;;;;;;;6.15;2.28;;;19.00;99.90;;;;;;4145216;28;20271;-81
2022/10/06 05:16:58;;;;;;;4.85;2.42;;;19.00;99.90;;;;;;4146703;28;20221;-80
2022/10/06 05:19:00;;;;;;;7.05;2.50;;;19.00;99.90;;;;;;4147646;28;20209;-80
2022/10/06 05:21:04;;;;;;;4.25;2.20;;;19.00;99.90;;;;;;4146716;28;20368;-80
2022/10/06 05:23:07;;;;;;;4.32;2.25;;;19.00;99.90;;;;;;4146927;28;20570;-80
2022/10/06 05:25:10;;;;;;;4.20;2.55;;;19.10;99.90;;;;;;4147933;28;20267;-79
2022/10/06 05:27:12;;;;;;;4.70;2.22;;;19.00;99.90;;;;;;4146232;28;20263;-80
2022/10/06 05:29:19;;;;;;;4.22;2.33;;;19.10;99.90;;;;;;4147259;28;20283;-80
2022/10/06 05:31:22;;;;;;;5.25;2.30;;;19.00;99.90;;;;;;4146571;28;20221;-80
2022/10/06 05:33:29;;;;;;;4.47;2.20;;;19.00;99.90;;;;;;4145237;28;20209;-80
2022/10/06 05:35:31;;;;;;;5.07;2.05;;;19.00;99.90;;;;;;4147370;28;21460;-80
2022/10/06 05:37:34;;;;;;;4.82;2.20;;;19.00;99.90;;;;;;4147115;28;20229;-80
2022/10/06 05:39:36;;;;;;;4.20;2.05;;;19.00;99.90;;;;;;4143915;28;20634;-79
2022/10/06 05:41:38;;;;;;;5.70;2.10;;;19.00;99.90;;;;;;4146830;28;20658;-80
2022/10/06 05:43:41;;;;;;;6.22;2.33;;;19.00;99.90;;;;;;4146734;28;20741;-80
2022/10/06 05:45:54;;;;;;;4.38;2.10;;;19.00;99.90;;;;;;4145113;28;20217;-79
2022/10/06 05:47:56;;;;;;;5.70;2.50;;;19.00;99.90;;;;;;4145900;28;20217;-80
2022/10/06 05:49:58;;;;;;;4.22;2.03;;;19.00;99.90;;;;;;4147373;28;20221;-80
2022/10/06 05:52:01;;;;;;;4.65;1.90;;;19.00;99.90;;;;;;4143621;28;20644;-79
2022/10/06 05:54:03;;;;;;;4.65;2.17;;;18.90;99.90;;;;;;4147144;28;20225;-80
2022/10/06 05:56:07;;;;;;;3.95;2.00;;;19.00;99.90;;;;;;4147248;28;20217;-80
2022/10/06 05:58:10;;;;;;;3.53;1.83;;;19.00;99.90;;;;;;4144881;28;20217;-80
2022/10/06 06:00:13;;;;;;;6.50;2.20;;;19.00;99.90;;;;;;4144524;28;20737;-80
2022/10/06 06:02:16;;;;;;;4.68;2.40;;;19.00;99.90;;;;;;4146098;28;20209;-80
2022/10/06 06:04:19;;;;;;;3.85;2.30;;;19.00;99.90;;;;;;4144303;28;20213;-80
2022/10/06 06:06:23;;;;;;;3.97;2.05;;;19.00;99.90;;;;;;4147274;28;20213;-80
2022/10/06 06:08:25;;;;;;;5.85;2.35;;;18.90;99.90;;;;;;4144714;28;20275;-81
2022/10/06 06:10:27;;;;;;;5.32;2.03;;;18.90;99.90;;;;;;4146020;28;20214;-80
2022/10/06 06:12:30;;;;;;;4.75;2.15;;;19.00;99.90;;;;;;4146708;28;20283;-80
2022/10/06 06:16:51;;;;;;;3.13;1.75;;;19.00;99.90;;;;;;4147028;28;20193;-80
2022/10/06 06:18:55;;;;;;;4.00;2.15;;;19.00;99.90;;;;;;4148146;28;20652;-79
2022/10/06 06:20:58;;;;;;;6.07;2.40;;;19.00;99.90;;;;;;4144591;28;20260;-79
2022/10/06 06:23:00;;;;;;;3.80;2.17;;;19.00;99.90;;;;;;4146730;28;20208;-80
2022/10/06 06:25:02;;;;;;;5.43;1.80;;;18.90;99.90;;;;;;4146387;28;20632;-79
2022/10/06 06:27:04;;;;;;;4.22;1.90;;;19.00;99.90;;;;;;4145262;28;20229;-79
2022/10/06 06:29:07;;;;;;;5.57;2.17;;;18.90;99.90;;;;;;4147103;28;20263;-80
2022/10/06 06:31:11;;;;;;;3.78;2.00;;;18.90;99.90;;;;;;4146866;28;20255;-80
2022/10/06 06:33:14;;;;;;;3.25;2.15;;;18.90;99.90;;;;;;4144350;28;20279;-80
2022/10/06 06:35:17;;;;;;;5.65;2.13;;;18.90;99.90;;;;;;4146705;28;20268;-79
2022/10/06 06:37:19;;;;;;;4.28;2.40;;;18.90;99.90;;;;;;4145464;28;20267;-79
2022/10/06 06:39:22;;;;;;;5.30;2.10;;;18.90;99.90;;;;;;4145055;28;20271;-80
2022/10/06 06:41:26;;;;;;;5.22;1.95;;;18.90;99.90;;;;;;4146200;28;20275;-80
2022/10/06 06:43:28;;;;;;;2.78;1.60;;;18.90;99.90;;;;;;4143178;28;20217;-80
2022/10/06 06:45:30;;;;;;;4.30;2.08;;;19.00;99.90;;;;;;4146303;28;20217;-80
2022/10/06 06:47:33;;;;;;;4.57;1.95;;;18.90;99.90;;;;;;4146390;28;20275;-80
2022/10/06 06:49:36;;;;;;;4.47;2.10;;;18.90;99.90;;;;;;4145384;28;20224;-80
2022/10/06 06:51:41;;;;;;;4.85;2.03;;;18.90;99.90;;;;;;4146690;28;20213;-80
2022/10/06 06:53:43;;;;;;;5.53;2.00;;;18.90;99.90;;;;;;4145268;28;20241;-79
2022/10/06 06:55:49;;;;;;;5.20;1.90;;;18.90;99.90;;;;;;4141861;28;20310;-81
2022/10/06 06:57:52;;;;;;;3.50;1.60;;;18.90;99.90;;;;;;4144748;28;20654;-81
2022/10/06 06:59:55;;;;;;;4.22;2.05;;;18.90;99.90;;;;;;4143313;28;20548;-81
2022/10/06 07:01:58;;;;;;;5.30;2.03;;;18.90;99.90;;;;;;4142754;28;20217;-80
2022/10/06 07:04:00;;;;;;;6.10;2.20;;;18.80;99.90;;;;;;4141989;28;20271;-78
2022/10/06 07:06:08;;;;;;;5.97;2.15;;;18.90;99.90;;;;;;4132868;28;20233;-78
2022/10/06 07:08:13;;;;;;;5.38;2.08;;;19.00;99.90;;;;;;4130043;28;20221;-79
2022/10/06 07:10:16;;;;;;;4.43;2.10;;;19.00;99.90;;;;;;4124478;28;20217;-79
2022/10/06 07:12:18;;;;;;;6.28;2.17;;;18.90;99.90;;;;;;4127797;28;20627;-79
2022/10/06 07:14:23;;;;;;;5.40;2.10;;;18.80;99.90;;;;;;4133815;28;20272;-80
2022/10/06 07:25:49;;;;;;;3.63;2.15;;;18.90;99.90;;;;;;4127374;28;20201;-79
2022/10/06 07:27:52;;;;;;;3.72;1.95;;;19.10;99.90;;;;;;4126784;28;20308;-80
2022/10/06 07:29:55;;;;;;;5.50;1.95;;;19.20;99.90;;;;;;4127839;28;21983;-81
2022/10/06 07:31:57;;;;;;;5.63;2.03;;;19.20;99.90;;;;;;4130219;28;20260;-80
2022/10/06 07:33:59;;;;;;;7.90;2.33;;;19.10;99.90;;;;;;4132031;28;20240;-79
2022/10/06 07:36:02;;;;;;;4.65;2.47;;;19.10;99.90;;;;;;4130674;28;20971;-79
2022/10/06 07:38:06;;;;;;;5.22;2.00;;;19.20;99.90;;;;;;4145590;28;20234;-79
2022/10/06 07:40:11;;;;;;;4.03;1.83;;;19.30;99.90;;;;;;4145760;28;20293;-80
2022/10/06 07:42:14;;;;;;;5.03;2.25;;;19.40;99.90;;;;;;4144045;28;20214;-79
2022/10/06 07:44:16;;;;;;;6.00;2.33;;;19.40;99.90;;;;;;4142594;28;20225;-80
2022/10/06 07:46:20;;;;;;;4.32;1.90;;;19.40;99.90;;;;;;4148786;28;20740;-81
2022/10/06 07:48:23;;;;;;;6.60;1.90;;;19.40;99.90;;;;;;4145453;28;21539;-80
2022/10/06 07:50:25;;;;;;;3.72;1.90;;;19.40;99.90;;;;;;4146265;28;20271;-81
2022/10/06 07:52:28;;;;;;;5.35;2.42;;;19.40;99.90;;;;;;4146290;28;20315;-80
2022/10/06 07:54:30;;;;;;;4.30;1.95;;;19.40;99.90;;;;;;4142747;28;20271;-80
2022/10/06 07:56:34;;;;;;;4.90;1.80;;;19.40;99.90;;;;;;4145080;28;20927;-78
2022/10/06 07:58:37;;;;;;;4.72;1.98;;;19.40;99.90;;;;;;4145874;28;20267;-80
2022/10/06 08:00:40;;;;;;;5.35;2.00;;;19.40;99.90;;;;;;4146882;28;20217;-80
2022/10/06 08:02:42;;;;;;;4.80;2.10;;;19.30;99.90;;;;;;4144689;28;20259;-80
2022/10/06 08:04:44;;;;;;;5.22;2.10;;;19.40;99.90;;;;;;4147847;28;20217;-78
2022/10/06 08:06:48;;;;;;;5.47;2.10;;;19.50;99.90;;;;;;4148920;28;20275;-81
2022/10/06 08:08:51;;;;;;;7.13;2.60;;;19.50;99.90;;;;;;4147743;28;20569;-88
2022/10/06 08:10:55;;;;;;;6.07;2.17;;;19.50;99.90;;;;;;4144816;28;20217;-76
2022/10/06 08:13:00;;;;;;;5.70;2.10;;;19.50;99.90;;;;;;4144517;28;20244;-79
2022/10/06 08:15:02;;;;;;;5.78;2.25;;;19.60;99.90;;;;;;4147515;28;20663;-77
2022/10/06 08:17:05;;;;;;;5.38;2.45;;;19.50;99.90;;;;;;4146715;28;20209;-80
2022/10/06 08:19:07;;;;;;;8.75;2.13;;;19.50;99.90;;;;;;4145000;28;20263;-80
2022/10/06 08:21:14;;;;;;;4.22;1.63;;;19.60;99.90;;;;;;4145974;28;20309;-77
2022/10/06 08:23:18;;;;;;;5.78;1.95;;;19.60;99.90;;;;;;4143860;28;20267;-74
2022/10/06 08:25:21;;;;;;;4.57;1.85;;;19.70;99.90;;;;;;4147401;28;20213;-77
2022/10/06 08:27:23;;;;;;;6.78;1.80;;;19.70;99.90;;;;;;4147078;28;20663;-75
2022/10/06 08:29:27;;;;;;;9.95;1.95;;;19.60;99.90;;;;;;4145483;28;20267;-75
2022/10/06 08:31:30;;;;;;;3.38;2.05;;;19.70;99.90;;;;;;4143537;28;20591;-73
2022/10/06 08:33:34;;;;;;;7.20;1.98;;;19.70;99.90;;;;;;4146012;28;20232;-74
2022/10/06 08:35:38;;;;;;;7.38;1.90;;;19.70;99.90;;;;;;4144804;28;20217;-71
2022/10/06 08:37:41;;;;;;;6.63;1.92;;;19.70;99.90;;;;;;4144060;28;20272;-72
2022/10/06 08:39:43;;;;;;;6.97;1.90;;;19.70;99.90;;;;;;4143606;28;20221;-73
2022/10/06 08:41:50;;;;;;;5.28;1.77;;;19.70;99.90;;;;;;4143995;28;20221;-73
2022/10/06 08:43:59;;;;;;;7.38;2.03;;;19.70;99.90;;;;;;4138933;28;20207;-73
2022/10/06 08:46:04;;;;;;;4.97;2.00;;;19.70;99.90;;;;;;4145246;28;20217;-72
2022/10/06 08:48:12;;;;;;;5.47;2.08;;;19.80;99.90;;;;;;4144067;28;20221;-71
2022/10/06 08:50:15;;;;;;;4.35;1.85;;;19.80;99.90;;;;;;4143937;28;20196;-71
2022/10/06 08:52:34;;;;;;;5.13;2.15;;;19.80;99.90;;;;;;4145266;28;20240;-72
2022/10/06 08:54:44;;;;;;;4.22;1.80;;;19.80;99.90;;;;;;4144211;28;20233;-73
2022/10/06 08:56:56;;;;;;;5.70;1.80;;;19.80;99.90;;;;;;4146719;28;20221;-71
2022/10/06 08:59:02;;;;;;;6.32;1.92;;;19.80;99.90;;;;;;4143926;28;20341;-75
2022/10/06 09:01:16;;;;;;;5.63;1.73;;;19.80;99.90;;;;;;4141335;28;20221;-72
2022/10/06 09:03:22;;;;;;;10.50;2.10;;;19.80;99.90;;;;;;4144224;28;20270;-73
2022/10/06 09:05:27;;;;;;;8.32;1.90;;;19.80;99.90;;;;;;4145683;28;20209;-72
2022/10/06 09:07:40;;;;;;;5.75;1.58;;;19.80;99.90;;;;;;4143036;28;20271;-72
2022/10/06 09:10:02;;;;;;;5.20;2.05;;;19.80;99.90;;;;;;4142958;28;20279;-73
2022/10/06 09:12:16;;;;;;;6.72;1.90;;;19.80;99.90;;;;;;4140837;28;20263;-73
2022/10/06 09:14:23;;;;;;;5.25;2.10;;;19.80;99.90;;;;;;4142649;28;20233;-72
2022/10/06 09:16:31;;;;;;;5.75;1.95;;;19.80;99.90;;;;;;4140135;28;20662;-75
2022/10/06 09:18:38;;;;;;;6.57;1.98;;;19.90;99.90;;;;;;4142529;28;20308;-76
2022/10/06 09:20:46;;;;;;;7.45;2.30;;;19.70;99.90;;;;;;4139013;28;20276;-75
2022/10/06 09:22:51;;;;;;;6.20;2.00;;;19.80;99.90;;;;;;4142791;28;20274;-76
2022/10/06 09:24:57;;;;;;;4.80;1.77;;;19.80;99.90;;;;;;4143892;28;20620;-76
2022/10/06 09:26:59;;;;;;;7.93;2.00;;;19.90;99.90;;;;;;4140180;28;20221;-75
2022/10/06 09:29:02;;;;;;;4.05;1.70;;;19.80;99.90;;;;;;4136589;28;20267;-75
2022/10/06 09:31:18;;;;;;;4.60;1.35;;;19.80;99.90;;;;;;4130084;28;20276;-75
2022/10/06 09:33:24;;;;;;;6.68;2.08;;;19.90;99.90;;;;;;4142649;28;20580;-76
2022/10/06 09:35:28;;;;;;;8.57;2.40;;;19.80;99.90;;;;;;4141535;28;20213;-75
2022/10/06 09:37:55;;;;;;;6.05;1.80;;;19.80;99.90;;;;;;4142346;28;20225;-77
2022/10/06 09:39:57;;;;;;;4.97;1.85;;;19.70;99.90;;;;;;4141527;28;20213;-76
2022/10/06 09:42:06;;;;;;;9.15;2.53;;;19.80;99.90;;;;;;4132125;28;20214;-76
2022/10/06 09:44:27;;;;;;;4.45;1.88;;;19.80;99.90;;;;;;4144918;28;20217;-77
2022/10/06 09:46:33;;;;;;;6.68;2.00;;;19.90;99.90;;;;;;4144087;28;20939;-75
2022/10/06 09:48:37;;;;;;;5.90;2.30;;;19.90;99.90;;;;;;4142812;28;20221;-75
2022/10/06 09:50:41;;;;;;;4.13;2.08;;;19.90;99.90;;;;;;4138220;28;20823;-75
2022/10/06 09:53:02;;;;;;;4.88;2.05;;;19.90;99.90;;;;;;4142097;28;20237;-75
2022/10/06 09:55:11;;;;;;;8.40;2.10;;;19.90;99.90;;;;;;4140088;28;20271;-75
2022/10/06 09:57:17;;;;;;;9.15;2.47;;;19.80;99.90;;;;;;4144377;28;20616;-75
2022/10/06 09:59:21;;;;;;;9.32;2.15;;;19.80;99.90;;;;;;4142366;28;20275;-75
2022/10/06 10:01:26;;;;;;;4.05;1.70;;;19.80;99.90;;;;;;4140114;28;20213;-75
2022/10/06 10:03:45;;;;;;;6.15;2.10;;;19.80;99.90;;;;;;4142148;28;20225;-75
2022/10/06 10:05:49;;;;;;;6.47;2.30;;;19.80;99.90;;;;;;4145494;28;20271;-75
2022/10/06 10:08:17;;;;;;;4.95;1.95;;;19.80;99.90;;;;;;4206312;27;20798;-73
2022/10/06 10:10:22;;;;;;;5.22;2.08;;;19.80;99.90;;;;;;4185111;28;20219;-74
2022/10/06 10:12:29;;;;;;;3.40;1.60;;;19.80;99.90;;;;;;4188526;28;20219;-74
2022/10/06 10:14:37;;;;;;;4.47;2.38;;;19.80;99.90;;;;;;4192520;28;20255;-74
2022/10/06 10:16:39;;;;;;;6.50;2.20;;;19.80;99.90;;;;;;4193063;28;20236;-74
2022/10/06 10:18:46;;;;;;;8.15;2.20;;;19.80;99.90;;;;;;4190626;28;20272;-74
2022/10/06 10:20:54;;;;;;;4.80;1.73;;;19.90;99.90;;;;;;4188119;28;20265;-73
2022/10/06 10:22:59;;;;;;;3.20;1.90;;;19.80;99.90;;;;;;4190248;28;20227;-74
2022/10/06 10:25:12;;;;;;;5.07;2.00;;;19.80;99.90;;;;;;4189890;28;20265;-75
2022/10/06 10:27:22;;;;;;;4.70;1.90;;;19.80;99.90;;;;;;4190298;28;20288;-74
2022/10/06 10:29:51;;;;;;;5.90;2.20;;;19.80;99.90;;;;;;4187230;28;20620;-75
2022/10/06 10:32:05;;;;;;;5.07;1.90;;;19.80;99.90;;;;;;4186599;28;20268;-74
2022/10/06 10:34:17;;;;;;;5.20;2.13;;;19.80;99.90;;;;;;4187547;28;20263;-74
2022/10/06 10:36:24;;;;;;;7.25;2.00;;;19.80;99.90;;;;;;4188336;28;20223;-75
2022/10/06 10:38:27;;;;;;;4.68;1.77;;;19.80;99.90;;;;;;4185597;28;20220;-76
2022/10/06 10:40:38;;;;;;;3.90;1.77;;;19.80;99.90;;;;;;4181143;28;20215;-74
2022/10/06 10:42:47;;;;;;;4.53;1.83;;;19.80;99.90;;;;;;4185678;28;20211;-75
2022/10/06 10:44:54;;;;;;;6.32;1.83;;;19.80;99.90;;;;;;4189268;28;20286;-74
2022/10/06 10:47:08;;;;;;;4.25;1.70;;;19.80;99.90;;;;;;4188481;28;20288;-75
2022/10/06 10:49:17;;;;;;;5.70;1.70;;;19.80;99.90;;;;;;4189203;28;20211;-75
2022/10/06 10:51:24;;;;;;;6.00;1.73;;;19.80;99.90;;;;;;4182245;28;20230;-75
2022/10/06 10:53:32;;;;;;;5.70;1.90;;;19.80;99.90;;;;;;4183123;28;20636;-74
2022/10/06 10:55:40;;;;;;;11.70;1.80;;;19.80;99.90;;;;;;4183662;28;20292;-73
2022/10/06 10:57:44;;;;;;;7.60;2.10;;;19.80;99.90;;;;;;4186763;28;20246;-73
2022/10/06 10:59:57;;;;;;;6.78;2.03;;;19.80;99.90;;;;;;4184954;28;20288;-73